createdAt,value
2019-02-26T00:00:23.910Z,61.60
2019-02-26T00:02:56.297Z,62.90
2019-02-26T00:05:28.504Z,62.20
2019-02-26T00:08:00.052Z,62.10
2019-02-26T00:10:33.979Z,60.80
2019-02-26T00:13:05.438Z,61.50
2019-02-26T00:15:38.110Z,60.80
2019-02-26T00:18:11.604Z,62.80
2019-02-26T00:20:41.409Z,64.60
2019-02-26T00:23:12.005Z,65.70
2019-02-26T00:25:42.450Z,62.40
2019-02-26T00:28:15.378Z,62.90
2019-02-26T00:30:46.530Z,65.40
2019-02-26T00:33:18.970Z,66.00
2019-02-26T00:35:50.263Z,65.60
2019-02-26T00:38:20.932Z,64.50
2019-02-26T00:40:52.049Z,65.50
2019-02-26T00:43:25.328Z,64.50
2019-02-26T00:45:57.949Z,63.10
2019-02-26T00:48:26.911Z,61.90
2019-02-26T00:51:01.035Z,61.50
2019-02-26T00:53:33.087Z,60.90
2019-02-26T00:56:07.745Z,59.80
2019-02-26T00:58:39.301Z,59.70
2019-02-26T01:01:12.159Z,59.70
2019-02-26T01:03:43.084Z,60.80
2019-02-26T01:06:15.127Z,61.70
2019-02-26T01:08:47.185Z,61.40
2019-02-26T01:11:19.473Z,61.10
2019-02-26T01:13:52.839Z,60.10
2019-02-26T01:16:23.531Z,61.40
2019-02-26T01:18:54.008Z,61.40
2019-02-26T01:21:28.181Z,61.10
2019-02-26T01:23:58.947Z,62.20
2019-02-26T01:26:28.855Z,62.50
2019-02-26T01:29:01.019Z,63.60
2019-02-26T01:31:32.171Z,64.10
2019-02-26T01:34:03.656Z,63.70
2019-02-26T01:36:40.410Z,64.50
2019-02-26T01:39:13.799Z,65.10
2019-02-26T01:41:47.464Z,65.20
2019-02-26T01:44:18.724Z,65.60
2019-02-26T01:46:53.234Z,65.80
2019-02-26T01:49:24.151Z,65.90
2019-02-26T01:51:55.529Z,66.20
2019-02-26T01:54:28.080Z,66.60
2019-02-26T01:57:00.218Z,66.00
2019-02-26T01:59:31.702Z,66.70
2019-02-26T02:02:02.903Z,65.90
2019-02-26T02:04:34.293Z,67.00
2019-02-26T02:07:06.078Z,67.10
2019-02-26T02:09:37.256Z,67.50
2019-02-26T02:12:09.288Z,68.00
2019-02-26T02:14:42.868Z,67.30
2019-02-26T02:17:13.920Z,67.20
2019-02-26T02:19:44.389Z,68.10
2019-02-26T02:22:16.933Z,69.10
2019-02-26T02:24:50.968Z,69.40
2019-02-26T02:27:24.109Z,70.30
2019-02-26T02:29:55.308Z,70.50
2019-02-26T02:32:28.751Z,70.40
2019-02-26T02:35:03.466Z,70.80
2019-02-26T02:37:31.945Z,71.60
2019-02-26T02:40:02.589Z,72.90
2019-02-26T02:42:35.136Z,72.50
2019-02-26T02:45:11.322Z,72.60
2019-02-26T02:47:43.296Z,73.20
2019-02-26T02:50:18.377Z,73.90
2019-02-26T02:52:50.877Z,75.00
2019-02-26T02:55:21.035Z,75.70
2019-02-26T02:57:55.144Z,76.50
2019-02-26T03:00:26.492Z,77.90
2019-02-26T03:02:58.364Z,79.10
2019-02-26T03:05:31.270Z,80.90
2019-02-26T03:08:01.076Z,81.60
2019-02-26T03:10:34.569Z,82.30
2019-02-26T03:13:05.988Z,82.90
2019-02-26T03:15:36.450Z,83.30
2019-02-26T03:18:09.415Z,83.70
2019-02-26T03:20:40.321Z,84.00
2019-02-26T03:23:15.076Z,84.90
2019-02-26T03:25:44.553Z,86.20
2019-02-26T03:28:16.170Z,86.90
2019-02-26T03:30:47.819Z,88.60
2019-02-26T03:33:18.422Z,89.00
2019-02-26T03:35:48.916Z,90.00
2019-02-26T03:38:20.732Z,90.30
2019-02-26T03:40:52.797Z,90.40
2019-02-26T03:43:23.752Z,90.60
2019-02-26T03:45:54.318Z,91.00
2019-02-26T03:48:24.776Z,91.30
2019-02-26T03:50:55.289Z,91.50
2019-02-26T03:53:31.372Z,91.80
2019-02-26T03:56:04.265Z,92.10
2019-02-26T03:58:33.044Z,92.40
2019-02-26T04:01:08.456Z,92.60
2019-02-26T04:03:39.542Z,92.70
2019-02-26T04:06:12.174Z,93.20
2019-02-26T04:08:46.200Z,93.20
2019-02-26T04:11:19.394Z,93.50
2019-02-26T04:13:52.164Z,93.60
2019-02-26T04:16:22.410Z,93.90
2019-02-26T04:18:52.901Z,94.00
2019-02-26T04:21:25.881Z,94.30
2019-02-26T04:23:58.706Z,94.80
2019-02-26T04:26:43.344Z,94.90
2019-02-26T04:29:18.546Z,94.90
2019-02-26T04:32:21.011Z,95.10
2019-02-26T04:34:57.634Z,95.10
2019-02-26T04:37:43.965Z,95.10
2019-02-26T04:40:20.396Z,95.20
2019-02-26T04:43:05.225Z,95.40
2019-02-26T04:46:28.889Z,95.50
2019-02-26T04:48:59.662Z,95.60
2019-02-26T04:51:30.125Z,96.00
2019-02-26T04:54:02.106Z,96.00
2019-02-26T04:56:36.040Z,96.00
2019-02-26T04:59:07.023Z,96.20
2019-02-26T05:01:37.326Z,96.20
2019-02-26T05:04:07.788Z,96.40
2019-02-26T05:06:38.294Z,96.30
2019-02-26T05:09:10.632Z,96.40
2019-02-26T05:11:40.954Z,96.30
2019-02-26T05:14:18.143Z,96.20
2019-02-26T05:16:47.084Z,96.20
2019-02-26T05:19:21.222Z,96.20
2019-02-26T05:21:49.724Z,96.20
2019-02-26T05:24:21.799Z,96.70
2019-02-26T05:26:52.431Z,96.50
2019-02-26T05:29:22.982Z,96.60
2019-02-26T05:31:55.548Z,96.60
2019-02-26T05:34:28.691Z,96.70
2019-02-26T05:37:02.860Z,96.70
2019-02-26T05:39:56.039Z,96.80
2019-02-26T05:42:26.528Z,96.80
2019-02-26T05:45:00.661Z,96.70
2019-02-26T05:47:32.328Z,96.80
2019-02-26T05:50:06.229Z,96.80
2019-02-26T05:52:35.945Z,96.70
2019-02-26T05:55:07.014Z,96.80
2019-02-26T05:57:39.058Z,96.80
2019-02-26T06:00:14.564Z,96.90
2019-02-26T06:02:51.021Z,96.90
2019-02-26T06:05:23.400Z,97.00
2019-02-26T06:07:56.923Z,97.10
2019-02-26T06:10:29.830Z,97.00
2019-02-26T06:13:01.534Z,97.00
2019-02-26T06:15:34.066Z,97.10
2019-02-26T06:18:03.960Z,97.20
2019-02-26T06:20:36.599Z,97.00
2019-02-26T06:23:08.607Z,97.00
2019-02-26T06:25:39.043Z,97.10
2019-02-26T06:28:13.542Z,97.20
2019-02-26T06:30:43.251Z,97.20
2019-02-26T06:33:14.474Z,97.20
2019-02-26T06:35:47.476Z,97.20
2019-02-26T06:38:17.940Z,97.20
2019-02-26T06:40:49.033Z,97.20
2019-02-26T06:43:22.143Z,97.40
2019-02-26T06:45:52.597Z,97.50
2019-02-26T06:48:25.027Z,97.40
2019-02-26T06:50:57.622Z,97.20
2019-02-26T06:53:29.266Z,97.20
2019-02-26T06:56:01.878Z,97.50
2019-02-26T06:58:35.459Z,97.60
2019-02-26T07:01:07.635Z,97.60
2019-02-26T07:03:40.882Z,97.80
2019-02-26T07:06:11.108Z,97.60
2019-02-26T07:08:42.183Z,97.60
2019-02-26T07:11:13.763Z,97.60
2019-02-26T07:13:46.497Z,97.70
2019-02-26T07:16:20.718Z,97.90
2019-02-26T07:18:50.582Z,97.90
2019-02-26T07:21:21.095Z,97.80
2019-02-26T07:23:54.601Z,97.70
2019-02-26T07:26:25.145Z,98.00
2019-02-26T07:28:55.686Z,97.90
2019-02-26T07:31:27.032Z,98.00
2019-02-26T07:34:00.607Z,97.80
2019-02-26T07:36:30.790Z,97.70
2019-02-26T07:39:05.049Z,97.90
2019-02-26T07:41:35.517Z,97.90
2019-02-26T07:44:11.477Z,97.90
2019-02-26T07:46:40.233Z,97.90
2019-02-26T07:49:12.072Z,98.00
2019-02-26T07:51:43.884Z,97.90
2019-02-26T07:54:14.390Z,97.70
2019-02-26T07:56:44.854Z,97.50
2019-02-26T07:59:15.343Z,97.70
2019-02-26T08:01:47.109Z,97.70
2019-02-26T08:04:18.487Z,97.20
2019-02-26T08:06:49.081Z,97.10
2019-02-26T08:09:21.811Z,97.20
2019-02-26T08:11:51.749Z,97.00
2019-02-26T08:14:23.318Z,96.70
2019-02-26T08:16:56.281Z,96.90
2019-02-26T08:19:29.570Z,96.70
2019-02-26T08:22:00.559Z,96.50
2019-02-26T08:24:31.065Z,96.60
2019-02-26T08:27:03.497Z,96.50
2019-02-26T08:29:36.055Z,96.30
2019-02-26T08:32:07.603Z,96.00
2019-02-26T08:34:39.763Z,96.20
2019-02-26T08:37:11.041Z,95.90
2019-02-26T08:39:44.413Z,95.70
2019-02-26T08:42:14.898Z,95.80
2019-02-26T08:44:48.282Z,95.90
2019-02-26T08:47:19.154Z,95.50
2019-02-26T08:49:49.793Z,94.90
2019-02-26T08:52:22.834Z,94.80
2019-02-26T08:54:52.541Z,94.80
2019-02-26T08:57:23.577Z,94.80
2019-02-26T08:59:54.554Z,94.50
2019-02-26T09:02:25.271Z,94.20
2019-02-26T09:04:55.759Z,94.20
2019-02-26T09:07:27.280Z,94.20
2019-02-26T09:09:59.416Z,93.50
2019-02-26T09:12:30.747Z,93.10
2019-02-26T09:15:02.572Z,93.10
2019-02-26T09:17:34.831Z,93.30
2019-02-26T09:20:12.369Z,93.50
2019-02-26T09:22:47.861Z,93.90
2019-02-26T09:25:21.078Z,93.70
2019-02-26T09:27:51.500Z,93.70
2019-02-26T09:30:22.650Z,93.60
2019-02-26T09:32:53.137Z,93.70
2019-02-26T09:35:28.179Z,94.00
2019-02-26T09:37:59.105Z,94.10
2019-02-26T09:40:29.128Z,93.40
2019-02-26T09:43:00.288Z,93.40
2019-02-26T09:45:31.689Z,93.30
2019-02-26T09:48:02.547Z,93.30
2019-02-26T09:50:33.024Z,93.20
2019-02-26T09:53:04.564Z,93.50
2019-02-26T09:55:35.064Z,93.40
2019-02-26T09:58:05.539Z,93.30
2019-02-26T10:00:40.505Z,93.70
2019-02-26T10:03:12.832Z,93.20
2019-02-26T10:05:45.329Z,92.50
2019-02-26T10:08:17.264Z,92.10
2019-02-26T10:10:51.375Z,91.70
2019-02-26T10:13:24.710Z,91.00
2019-02-26T10:15:58.175Z,90.10
2019-02-26T10:18:27.964Z,89.70
2019-02-26T10:21:00.899Z,88.90
2019-02-26T10:23:32.974Z,86.50
2019-02-26T10:26:05.782Z,85.00
2019-02-26T10:28:39.395Z,84.10
2019-02-26T10:31:09.706Z,85.40
2019-02-26T10:33:43.976Z,84.40
2019-02-26T10:36:16.471Z,84.00
2019-02-26T10:38:47.539Z,83.90
2019-02-26T10:41:18.801Z,82.30
2019-02-26T10:43:49.936Z,82.50
2019-02-26T10:46:21.568Z,82.00
2019-02-26T10:48:52.935Z,81.70
2019-02-26T10:51:26.188Z,79.10
2019-02-26T10:53:57.508Z,77.20
2019-02-26T10:56:30.246Z,75.60
2019-02-26T10:59:03.463Z,75.30
2019-02-26T11:01:33.717Z,70.70
2019-02-26T11:04:05.989Z,69.00
2019-02-26T11:06:41.171Z,70.00
2019-02-26T11:09:17.377Z,67.60
2019-02-26T11:11:45.589Z,63.00
2019-02-26T11:14:19.449Z,58.60
2019-02-26T11:16:49.775Z,56.90
2019-02-26T11:19:25.305Z,56.60
2019-02-26T11:21:58.069Z,53.30
2019-02-26T11:24:30.260Z,49.40
2019-02-26T11:27:00.680Z,48.50
2019-02-26T11:29:34.015Z,48.10
2019-02-26T11:32:04.624Z,48.20
2019-02-26T11:34:38.305Z,46.40
2019-02-26T11:37:10.490Z,46.30
2019-02-26T11:39:40.998Z,45.50
2019-02-26T11:42:11.488Z,44.50
2019-02-26T11:44:41.950Z,45.00
2019-02-26T11:47:13.652Z,42.30
2019-02-26T11:52:19.536Z,43.00
2019-02-26T11:54:50.297Z,40.00
2019-02-26T11:57:20.789Z,40.30
2019-02-26T11:59:51.259Z,39.10
2019-02-26T12:02:26.263Z,39.40
2019-02-26T12:04:54.888Z,39.00
2019-02-26T12:07:27.284Z,38.00
2019-02-26T12:10:00.076Z,37.80
2019-02-26T12:12:31.136Z,37.60
2019-02-26T12:15:04.418Z,38.60
2019-02-26T12:17:36.031Z,38.70
2019-02-26T12:20:12.084Z,38.80
2019-02-26T12:22:44.703Z,39.30
2019-02-26T12:25:16.727Z,39.60
2019-02-26T12:27:48.195Z,40.10
2019-02-26T12:30:24.195Z,41.10
2019-02-26T12:32:55.222Z,40.70
2019-02-26T12:35:29.511Z,41.00
2019-02-26T12:38:16.734Z,41.40
2019-02-26T12:40:31.507Z,41.30
2019-02-26T12:43:05.351Z,41.40
2019-02-26T12:45:37.718Z,41.40
2019-02-26T12:48:09.844Z,41.40
2019-02-26T12:50:40.794Z,42.30
2019-02-26T12:53:15.843Z,41.80
2019-02-26T12:55:46.296Z,41.80
2019-02-26T12:58:20.076Z,42.20
2019-02-26T13:00:51.621Z,41.40
2019-02-26T13:03:25.217Z,42.40
2019-02-26T13:05:55.709Z,41.70
2019-02-26T13:08:27.196Z,41.60
2019-02-26T13:10:58.461Z,41.70
2019-02-26T13:13:29.692Z,41.20
2019-02-26T13:16:01.328Z,41.10
2019-02-26T13:18:32.540Z,41.10
2019-02-26T13:21:08.896Z,39.50
2019-02-26T13:23:35.203Z,38.20
2019-02-26T13:26:10.303Z,37.90
2019-02-26T13:28:41.838Z,36.10
2019-02-26T13:31:18.159Z,36.50
2019-02-26T13:33:46.072Z,35.40
2019-02-26T13:36:17.832Z,34.70
2019-02-26T13:38:49.265Z,34.90
2019-02-26T13:41:29.475Z,33.50
2019-02-26T13:43:52.791Z,34.40
2019-02-26T13:46:23.911Z,35.20
2019-02-26T13:48:56.231Z,35.40
2019-02-26T13:51:26.732Z,36.20
2019-02-26T13:53:57.782Z,37.10
2019-02-26T13:56:29.657Z,37.70
2019-02-26T13:59:00.158Z,37.90
2019-02-26T14:01:32.189Z,38.50
2019-02-26T14:04:04.179Z,38.50
2019-02-26T14:06:36.189Z,38.90
2019-02-26T14:09:09.689Z,39.40
2019-02-26T14:11:40.810Z,39.30
2019-02-26T14:14:12.925Z,39.40
2019-02-26T14:16:43.399Z,40.20
2019-02-26T14:19:14.662Z,40.30
2019-02-26T14:21:45.730Z,40.30
2019-02-26T14:24:16.257Z,40.40
2019-02-26T14:26:48.220Z,39.90
2019-02-26T14:29:19.523Z,39.70
2019-02-26T14:31:50.061Z,39.50
2019-02-26T14:34:22.120Z,38.90
2019-02-26T14:36:52.671Z,39.30
2019-02-26T14:39:23.172Z,38.80
2019-02-26T14:41:53.726Z,39.10
2019-02-26T14:44:24.226Z,38.90
2019-02-26T14:46:55.303Z,39.60
2019-02-26T14:49:26.032Z,39.20
2019-02-26T14:51:56.561Z,39.90
2019-02-26T14:54:27.058Z,40.30
2019-02-26T14:56:59.994Z,40.00
2019-02-26T14:59:32.960Z,39.70
2019-02-26T15:02:03.353Z,40.30
2019-02-26T15:04:35.489Z,40.60
2019-02-26T15:07:08.735Z,40.60
2019-02-26T15:09:40.780Z,40.70
2019-02-26T15:12:12.943Z,39.70
2019-02-26T15:14:45.033Z,40.10
2019-02-26T15:17:17.096Z,40.40
2019-02-26T15:19:51.317Z,39.90
2019-02-26T15:22:20.683Z,40.30
2019-02-26T15:24:52.755Z,40.40
2019-02-26T15:27:23.470Z,40.90
2019-02-26T15:29:54.671Z,40.60
2019-02-26T15:32:26.763Z,40.50
2019-02-26T15:34:57.263Z,39.40
2019-02-26T15:37:27.757Z,38.70
2019-02-26T15:39:59.157Z,39.10
2019-02-26T15:42:29.593Z,39.90
2019-02-26T15:45:00.879Z,40.50
2019-02-26T15:47:32.541Z,41.20
2019-02-26T15:50:06.712Z,41.40
2019-02-26T15:52:39.059Z,42.10
2019-02-26T15:55:13.587Z,42.20
2019-02-26T15:57:44.146Z,42.30
2019-02-26T16:00:22.019Z,42.90
2019-02-26T16:02:54.048Z,43.00
2019-02-26T16:05:28.571Z,45.00
2019-02-26T16:08:01.059Z,45.30
2019-02-26T16:10:33.081Z,45.20
2019-02-26T16:13:04.489Z,45.40
2019-02-26T16:15:39.207Z,46.20
2019-02-26T16:18:10.923Z,46.50
2019-02-26T16:20:42.954Z,47.40
2019-02-26T16:23:15.515Z,47.20
2019-02-26T16:25:46.013Z,46.40
2019-02-26T16:28:16.548Z,46.80
2019-02-26T16:30:47.075Z,47.20
2019-02-26T16:33:17.643Z,47.90
2019-02-26T16:35:52.313Z,48.60
2019-02-26T16:38:23.811Z,48.70
2019-02-26T16:40:54.298Z,48.90
2019-02-26T16:43:24.782Z,49.20
2019-02-26T16:45:55.835Z,50.10
2019-02-26T16:48:27.593Z,50.60
2019-02-26T16:50:58.076Z,50.70
2019-02-26T16:53:33.501Z,51.40
2019-02-26T16:56:07.808Z,52.40
2019-02-26T16:58:38.192Z,52.80
2019-02-26T17:01:09.404Z,53.40
2019-02-26T17:03:39.888Z,54.60
2019-02-26T17:06:10.888Z,55.10
2019-02-26T17:08:44.715Z,56.40
2019-02-26T17:11:18.061Z,57.00
2019-02-26T17:13:49.400Z,57.10
2019-02-26T17:16:20.227Z,58.20
2019-02-26T17:18:50.723Z,58.50
2019-02-26T17:21:21.194Z,59.30
2019-02-26T17:23:51.777Z,59.80
2019-02-26T17:26:22.246Z,61.40
2019-02-26T17:28:52.745Z,62.30
2019-02-26T17:31:24.742Z,62.90
2019-02-26T17:33:55.254Z,63.60
2019-02-26T17:36:25.710Z,63.90
2019-02-26T17:38:57.762Z,65.00
2019-02-26T17:41:28.222Z,65.50
2019-02-26T17:43:59.611Z,66.20
2019-02-26T17:46:30.866Z,66.20
2019-02-26T17:49:02.858Z,66.50
2019-02-26T17:51:33.506Z,67.40
2019-02-26T17:54:06.106Z,69.80
2019-02-26T17:56:38.299Z,70.20
2019-02-26T17:59:11.447Z,69.70
2019-02-26T18:01:43.717Z,70.30
2019-02-26T18:04:15.350Z,71.00
2019-02-26T18:06:45.847Z,71.20
2019-02-26T18:09:16.307Z,72.20
2019-02-26T18:11:48.763Z,73.60
2019-02-26T18:14:19.248Z,74.30
2019-02-26T18:16:50.858Z,73.30
2019-02-26T18:19:21.351Z,74.70
2019-02-26T18:21:53.544Z,74.60
2019-02-26T18:24:28.748Z,75.20
2019-02-26T18:26:59.326Z,75.80
2019-02-26T18:29:30.547Z,76.00
2019-02-26T18:32:01.181Z,76.00
2019-02-26T18:34:32.461Z,76.60
2019-02-26T18:37:02.971Z,76.80
2019-02-26T18:39:33.532Z,76.40
2019-02-26T18:42:07.624Z,77.30
2019-02-26T18:44:36.217Z,76.90
2019-02-26T18:47:07.211Z,76.40
2019-02-26T18:49:39.022Z,75.80
2019-02-26T18:52:09.514Z,75.90
2019-02-26T18:54:40.574Z,75.90
2019-02-26T18:57:11.642Z,76.00
2019-02-26T18:59:43.603Z,76.10
2019-02-26T19:02:16.946Z,76.40
2019-02-26T19:04:48.766Z,76.50
2019-02-26T19:07:19.711Z,76.20
2019-02-26T19:09:51.429Z,75.80
2019-02-26T19:12:21.890Z,76.40
2019-02-26T19:14:53.126Z,77.20
2019-02-26T19:17:26.706Z,77.70
2019-02-26T19:19:56.820Z,78.00
2019-02-26T19:22:29.236Z,78.60
2019-02-26T19:25:00.472Z,78.60
2019-02-26T19:27:32.501Z,79.10
2019-02-26T19:30:05.218Z,79.60
2019-02-26T19:32:35.777Z,79.40
2019-02-26T19:35:12.194Z,79.10
2019-02-26T19:37:43.465Z,78.50
2019-02-26T19:40:21.497Z,77.50
2019-02-26T19:42:53.446Z,76.80
2019-02-26T19:45:27.092Z,76.00
2019-02-26T19:47:57.592Z,75.90
2019-02-26T19:50:28.151Z,75.40
2019-02-26T19:53:02.538Z,74.90
2019-02-26T19:55:37.191Z,75.00
2019-02-26T19:58:07.734Z,74.40
2019-02-26T20:00:38.239Z,74.40
2019-02-26T20:03:08.695Z,75.10
2019-02-26T20:05:41.285Z,75.60
2019-02-26T20:08:11.922Z,76.10
2019-02-26T20:10:48.043Z,77.10
2019-02-26T20:13:17.243Z,77.70
2019-02-26T20:15:47.746Z,77.40
2019-02-26T20:18:20.942Z,77.60
2019-02-26T20:20:51.064Z,78.00
2019-02-26T20:23:21.970Z,78.40
2019-02-26T20:25:52.482Z,78.30
2019-02-26T20:28:22.950Z,78.30
2019-02-26T20:30:55.181Z,78.70
2019-02-26T20:33:27.015Z,78.50
2019-02-26T20:35:58.165Z,78.50
2019-02-26T20:38:32.299Z,78.30
2019-02-26T20:41:01.671Z,78.90
2019-02-26T20:43:37.360Z,76.80
2019-02-26T20:46:07.893Z,75.40
2019-02-26T20:48:38.398Z,75.00
2019-02-26T20:51:11.220Z,74.30
2019-02-26T20:53:41.680Z,74.20
2019-02-26T20:56:13.558Z,75.00
2019-02-26T20:58:44.901Z,75.10
2019-02-26T21:01:17.541Z,75.50
2019-02-26T21:03:48.015Z,76.00
2019-02-26T21:06:18.626Z,77.00
2019-02-26T21:08:49.106Z,77.90
2019-02-26T21:11:22.476Z,78.10
2019-02-26T21:13:51.804Z,79.70
2019-02-26T21:16:23.803Z,78.30
2019-02-26T21:18:54.309Z,77.90
2019-02-26T21:21:24.776Z,79.30
2019-02-26T21:24:00.779Z,80.10
2019-02-26T21:26:30.912Z,79.80
2019-02-26T21:29:05.573Z,78.30
2019-02-26T21:31:36.498Z,78.80
2019-02-26T21:34:06.996Z,77.50
2019-02-26T21:36:37.485Z,75.80
2019-02-26T21:39:11.119Z,75.30
2019-02-26T21:41:41.855Z,75.50
2019-02-26T21:44:13.025Z,75.90
2019-02-26T21:46:43.492Z,76.50
2019-02-26T21:49:13.991Z,77.00
2019-02-26T21:51:45.559Z,77.80
2019-02-26T21:54:17.705Z,78.40
2019-02-26T21:56:48.871Z,78.50
2019-02-26T21:59:20.112Z,79.40
2019-02-26T22:01:50.613Z,77.70
2019-02-26T22:04:21.101Z,74.60
2019-02-26T22:06:52.838Z,74.70
2019-02-26T22:09:23.337Z,75.10
2019-02-26T22:11:54.161Z,74.10
2019-02-26T22:14:25.938Z,74.10
2019-02-26T22:16:57.162Z,74.50
2019-02-26T22:19:48.470Z,74.60
2019-02-26T22:22:18.967Z,74.60
2019-02-26T22:24:49.597Z,74.10
2019-02-26T22:27:22.380Z,74.40
2019-02-26T22:29:52.860Z,74.70
2019-02-26T22:32:25.127Z,73.00
2019-02-26T22:34:55.686Z,73.00
2019-02-26T22:37:26.145Z,73.60
2019-02-26T22:39:56.638Z,73.90
2019-02-26T22:42:27.097Z,73.60
2019-02-26T22:44:57.582Z,74.30
2019-02-26T22:47:29.602Z,74.70
2019-02-26T22:50:00.150Z,74.20
2019-02-26T22:52:31.879Z,72.30
2019-02-26T22:55:02.367Z,72.70
2019-02-26T22:57:34.167Z,73.10
2019-02-26T23:00:11.086Z,73.00
2019-02-26T23:02:41.304Z,73.30
2019-02-26T23:05:13.334Z,74.00
2019-02-26T23:07:43.847Z,74.30
2019-02-26T23:10:16.338Z,76.60
2019-02-26T23:12:48.406Z,76.90
2019-02-26T23:15:18.956Z,76.30
2019-02-26T23:17:49.425Z,76.50
2019-02-26T23:20:20.556Z,77.20
2019-02-26T23:22:51.407Z,77.20
2019-02-26T23:25:22.079Z,77.70
2019-02-26T23:27:54.164Z,78.20
2019-02-26T23:30:24.918Z,78.10
2019-02-26T23:32:59.405Z,78.40
2019-02-26T23:35:29.957Z,78.90
2019-02-26T23:38:00.618Z,77.60
2019-02-26T23:40:32.942Z,77.80
2019-02-26T23:43:04.815Z,78.00
2019-02-26T23:45:35.549Z,78.40
2019-02-26T23:48:08.050Z,79.00
2019-02-26T23:50:38.387Z,79.60
2019-02-26T23:53:08.846Z,80.50
2019-02-26T23:55:46.266Z,81.10
2019-02-26T23:58:13.799Z,80.60
